Manakin, Virginia
Current Conditions -  °F | °C
As of 5:54 PM on Wednesday 22 Oct 2014 (Local Time) from KOFP Reporting Station
Broken Clouds Broken Clouds  
Wind Chill: 54°   Ceiling: 9000
Heat Index: 54°   Visibility: 10mi
Dew Point: 48°   Wind: 13mph
Humidity: 80%   Direction: 310°NW
Pressure: 29.95"   Gusts: 26mph
Location:  37.6517°N, 77.7212°W
Report Text: KOFP 222154Z AUTO 31011G23KT 10SM FEW036 BKN090 12/09 A2995 RMK AO2 SLP142 T01220089
Loading
Personal Weather Stations






























Interactive Weather Map
Tropical Storm Tracking
New forecast layout! Learn more

10-Day Weather Forecast

Advertisements
Track Severe Weather on mobile